createdAt,value
2022-08-16T00:01:11.693Z,20.01
2022-08-16T00:03:38.735Z,19.97
2022-08-16T00:06:07.760Z,20.03
2022-08-16T00:08:37.693Z,20.02
2022-08-16T00:11:15.207Z,19.92
2022-08-16T00:13:43.835Z,19.80
2022-08-16T00:17:01.676Z,19.81
2022-08-16T00:19:09.255Z,19.84
2022-08-16T00:21:35.826Z,19.81
2022-08-16T00:24:04.599Z,19.87
2022-08-16T00:26:34.498Z,19.81
2022-08-16T00:29:05.381Z,19.82
2022-08-16T00:31:59.921Z,19.79
2022-08-16T00:34:22.176Z,19.72
2022-08-16T00:37:08.826Z,19.72
2022-08-16T00:39:36.119Z,19.73
2022-08-16T00:42:03.475Z,19.62
2022-08-16T00:44:31.982Z,19.72
2022-08-16T00:47:06.540Z,19.65
2022-08-16T00:49:39.686Z,19.64
2022-08-16T00:52:30.298Z,19.55
2022-08-16T00:54:57.775Z,19.58
2022-08-16T00:57:24.325Z,19.52
2022-08-16T00:59:58.838Z,19.55
2022-08-16T01:02:31.245Z,19.50
2022-08-16T01:05:09.086Z,19.44
2022-08-16T01:07:50.657Z,19.39
2022-08-16T01:10:20.550Z,19.45
2022-08-16T01:12:47.288Z,19.50
2022-08-16T01:15:15.081Z,19.50
2022-08-16T01:17:43.310Z,19.44
2022-08-16T01:20:24.148Z,19.37
2022-08-16T01:23:23.775Z,19.34
2022-08-16T01:26:00.119Z,19.35
2022-08-16T01:28:45.607Z,19.24
2022-08-16T01:31:14.750Z,19.29
2022-08-16T01:33:44.514Z,19.40
2022-08-16T01:36:13.090Z,19.24
2022-08-16T01:38:46.819Z,19.23
2022-08-16T01:41:22.063Z,19.32
2022-08-16T01:43:53.938Z,19.41
2022-08-16T01:46:37.978Z,19.32
2022-08-16T01:49:15.868Z,19.16
2022-08-16T01:51:47.706Z,18.89
2022-08-16T01:54:15.546Z,18.79
2022-08-16T01:56:42.611Z,18.60
2022-08-16T01:59:16.058Z,18.66
2022-08-16T02:01:49.702Z,18.69
2022-08-16T02:04:40.043Z,18.61
2022-08-16T02:07:11.326Z,18.74
2022-08-16T02:09:39.750Z,18.64
2022-08-16T02:12:50.305Z,18.73
2022-08-16T02:14:55.367Z,18.42
2022-08-16T02:17:22.133Z,18.38
2022-08-16T02:19:58.486Z,18.56
2022-08-16T02:22:34.180Z,18.47
2022-08-16T02:25:09.709Z,18.40
2022-08-16T02:27:36.841Z,18.18
2022-08-16T02:30:06.356Z,18.28
2022-08-16T02:32:49.877Z,18.44
2022-08-16T02:35:17.233Z,18.38
2022-08-16T02:37:52.672Z,18.35
2022-08-16T02:40:21.193Z,18.38
2022-08-16T02:42:50.690Z,18.53
2022-08-16T02:45:19.846Z,18.34
2022-08-16T02:48:00.577Z,18.47
2022-08-16T02:51:03.177Z,18.59
2022-08-16T02:53:23.653Z,18.59
2022-08-16T02:55:51.155Z,18.50
2022-08-16T02:58:19.970Z,18.14
2022-08-16T03:00:55.715Z,17.97
2022-08-16T03:03:23.026Z,18.00
2022-08-16T03:05:53.127Z,18.22
2022-08-16T03:08:51.848Z,18.15
2022-08-16T03:11:16.569Z,17.86
2022-08-16T03:13:56.455Z,18.04
2022-08-16T03:16:38.087Z,17.90
2022-08-16T03:19:06.892Z,17.75
2022-08-16T03:21:37.800Z,17.62
2022-08-16T03:24:28.169Z,17.74
2022-08-16T03:26:58.705Z,17.76
2022-08-16T03:29:31.324Z,17.71
2022-08-16T03:31:59.121Z,17.71
2022-08-16T03:34:27.337Z,17.61
2022-08-16T03:36:54.923Z,17.94
2022-08-16T03:39:22.043Z,17.61
2022-08-16T03:41:51.275Z,17.67
2022-08-16T03:44:43.295Z,17.89
2022-08-16T03:47:13.016Z,17.95
2022-08-16T03:49:47.912Z,17.93
2022-08-16T03:52:23.302Z,17.90
2022-08-16T03:54:53.317Z,17.99
2022-08-16T03:57:20.871Z,17.90
2022-08-16T03:59:47.738Z,17.65
2022-08-16T04:02:22.294Z,17.81
2022-08-16T04:04:50.348Z,18.00
2022-08-16T04:07:16.986Z,17.95
2022-08-16T04:09:44.820Z,17.68
2022-08-16T04:12:52.181Z,17.60
2022-08-16T04:14:58.436Z,17.58
2022-08-16T04:17:24.968Z,17.61
2022-08-16T04:19:54.983Z,17.86
2022-08-16T04:22:27.691Z,17.85
2022-08-16T04:24:55.137Z,17.78
2022-08-16T04:27:24.569Z,17.75
2022-08-16T04:29:55.446Z,17.69
2022-08-16T04:32:29.990Z,17.81
2022-08-16T04:34:56.516Z,17.88
2022-08-16T04:37:23.078Z,17.73
2022-08-16T04:39:55.636Z,17.87
2022-08-16T04:42:26.159Z,17.91
2022-08-16T04:44:55.924Z,17.71
2022-08-16T04:47:25.595Z,17.63
2022-08-16T04:49:59.922Z,17.88
2022-08-16T04:52:34.900Z,17.93
2022-08-16T04:55:09.769Z,18.03
2022-08-16T04:57:41.358Z,17.91
2022-08-16T05:00:32.058Z,18.12
2022-08-16T05:03:08.704Z,18.59
2022-08-16T05:05:45.364Z,19.33
2022-08-16T05:08:28.735Z,20.41
2022-08-16T05:11:00.008Z,20.55
2022-08-16T05:13:40.278Z,19.98
2022-08-16T05:16:16.749Z,20.48
2022-08-16T05:18:47.836Z,21.74
2022-08-16T05:21:14.381Z,22.60
2022-08-16T05:23:40.986Z,22.09
2022-08-16T05:26:19.565Z,20.87
2022-08-16T05:28:47.929Z,21.50
2022-08-16T05:31:29.968Z,22.54
2022-08-16T05:34:03.035Z,22.62
2022-08-16T05:36:33.778Z,22.67
2022-08-16T05:39:02.690Z,23.11
2022-08-16T05:41:29.358Z,22.93
2022-08-16T05:44:00.159Z,23.46
2022-08-16T05:46:32.363Z,23.87
2022-08-16T05:49:06.127Z,24.84
2022-08-16T05:51:40.111Z,24.02
2022-08-16T05:54:09.761Z,23.34
2022-08-16T05:56:39.508Z,22.48
2022-08-16T05:59:07.497Z,22.44
2022-08-16T06:01:38.027Z,22.54
2022-08-16T06:04:12.799Z,22.89
2022-08-16T06:06:41.799Z,23.12
2022-08-16T06:09:11.590Z,23.65
2022-08-16T06:11:43.150Z,23.88
2022-08-16T06:14:11.113Z,24.17
2022-08-16T06:16:38.114Z,23.91
2022-08-16T06:19:05.119Z,24.25
2022-08-16T06:21:36.886Z,25.48
2022-08-16T06:24:53.374Z,26.30
2022-08-16T06:26:57.886Z,27.13
2022-08-16T06:29:25.077Z,26.51
2022-08-16T06:31:51.734Z,27.73
2022-08-16T06:34:55.738Z,25.68
2022-08-16T06:37:05.310Z,27.20
2022-08-16T06:39:34.768Z,26.60
2022-08-16T06:42:18.248Z,24.05
2022-08-16T06:44:46.377Z,27.65
2022-08-16T06:47:17.268Z,29.33
2022-08-16T06:49:52.734Z,30.88
2022-08-16T06:52:57.660Z,28.31
2022-08-16T06:55:13.054Z,29.85
2022-08-16T06:57:41.616Z,31.66
2022-08-16T07:00:24.116Z,29.80
2022-08-16T07:02:53.637Z,30.54
2022-08-16T07:05:27.363Z,30.45
2022-08-16T07:08:10.505Z,32.66
2022-08-16T07:10:38.704Z,32.22
2022-08-16T07:13:11.938Z,32.12
2022-08-16T07:15:50.502Z,33.44
2022-08-16T07:18:24.355Z,33.06
2022-08-16T07:20:53.378Z,31.18
2022-08-16T07:23:21.637Z,29.47
2022-08-16T07:26:06.993Z,31.17
2022-08-16T07:28:33.558Z,31.69
2022-08-16T07:31:01.980Z,30.82
2022-08-16T07:33:52.842Z,31.55
2022-08-16T07:36:21.965Z,31.78
2022-08-16T07:38:50.022Z,31.49
2022-08-16T07:41:17.205Z,32.31
2022-08-16T07:43:43.907Z,35.02
2022-08-16T07:46:39.419Z,32.07
2022-08-16T07:49:02.347Z,28.66
2022-08-16T07:51:34.685Z,30.85
2022-08-16T07:54:10.041Z,30.56
2022-08-16T07:56:37.543Z,33.68
2022-08-16T07:59:05.289Z,32.53
2022-08-16T08:01:31.849Z,33.33
2022-08-16T08:03:58.687Z,33.26
2022-08-16T08:06:28.559Z,32.79
2022-08-16T08:08:57.165Z,35.66
2022-08-16T08:11:28.439Z,35.05
2022-08-16T08:13:57.583Z,34.74
2022-08-16T08:16:31.032Z,32.54
2022-08-16T08:19:02.906Z,31.00
2022-08-16T08:21:59.950Z,30.14
2022-08-16T08:24:18.602Z,34.24
2022-08-16T08:26:50.174Z,35.06
2022-08-16T08:29:22.677Z,33.38
2022-08-16T08:31:52.506Z,38.29
2022-08-16T08:34:21.038Z,39.01
2022-08-16T08:36:48.838Z,33.92
2022-08-16T08:39:20.896Z,33.43
2022-08-16T08:41:49.530Z,40.12
2022-08-16T08:44:29.248Z,38.77
2022-08-16T08:47:11.063Z,34.40
2022-08-16T08:49:50.577Z,34.77
2022-08-16T08:52:33.657Z,35.44
2022-08-16T08:55:10.743Z,34.14
2022-08-16T08:57:45.228Z,31.60
2022-08-16T09:00:15.582Z,34.79
2022-08-16T09:02:51.753Z,34.61
2022-08-16T09:05:22.164Z,34.58
2022-08-16T09:08:00.563Z,36.62
2022-08-16T09:10:29.466Z,36.96
2022-08-16T09:12:57.106Z,31.15
2022-08-16T09:15:23.981Z,32.47
2022-08-16T09:17:54.854Z,29.47
2022-08-16T09:20:25.506Z,30.42
2022-08-16T09:22:53.024Z,31.15
2022-08-16T09:25:26.048Z,31.35
2022-08-16T09:27:57.905Z,32.53
2022-08-16T09:30:33.857Z,34.62
2022-08-16T09:33:06.831Z,33.44
2022-08-16T09:35:38.826Z,31.74
2022-08-16T09:38:08.817Z,30.23
2022-08-16T09:40:42.869Z,29.22
2022-08-16T09:43:46.543Z,29.53
2022-08-16T09:45:59.932Z,31.21
2022-08-16T09:48:43.929Z,33.24
2022-08-16T09:51:14.048Z,39.17
2022-08-16T09:53:41.772Z,35.76
2022-08-16T09:56:32.421Z,33.87
2022-08-16T09:59:03.697Z,35.41
2022-08-16T10:01:33.495Z,32.96
2022-08-16T10:04:04.155Z,31.58
2022-08-16T10:06:34.239Z,34.65
2022-08-16T10:09:08.348Z,33.95
2022-08-16T10:11:56.674Z,38.77
2022-08-16T10:14:38.650Z,38.84
2022-08-16T10:17:06.171Z,34.25
2022-08-16T10:19:33.838Z,36.21
2022-08-16T10:22:05.003Z,36.84
2022-08-16T10:24:32.617Z,33.36
2022-08-16T10:27:25.480Z,37.17
2022-08-16T10:30:01.108Z,38.10
2022-08-16T10:32:31.957Z,37.75
2022-08-16T10:34:59.211Z,36.69
2022-08-16T10:37:32.570Z,36.37
2022-08-16T10:40:14.772Z,36.06
2022-08-16T10:42:55.574Z,34.47
2022-08-16T10:45:22.205Z,32.38
2022-08-16T10:48:00.513Z,31.12
2022-08-16T10:50:32.388Z,30.65
2022-08-16T10:52:59.702Z,32.43
2022-08-16T10:55:44.217Z,33.41
2022-08-16T10:58:17.142Z,36.32
2022-08-16T11:00:45.986Z,35.82
2022-08-16T11:06:00.680Z,37.99
2022-08-16T11:08:35.788Z,36.78
2022-08-16T11:11:13.026Z,31.01
2022-08-16T11:14:11.533Z,30.68
2022-08-16T11:19:20.067Z,34.93
2022-08-16T11:24:42.151Z,31.54
2022-08-16T11:27:23.739Z,34.45
2022-08-16T11:29:54.762Z,32.96
2022-08-16T11:32:32.444Z,34.33
2022-08-16T11:35:11.002Z,36.37
2022-08-16T11:40:36.263Z,35.28
2022-08-16T11:43:04.066Z,34.74
2022-08-16T11:45:35.086Z,35.09
2022-08-16T11:48:04.609Z,36.24
2022-08-16T11:50:33.442Z,36.61
2022-08-16T11:53:02.427Z,37.31
2022-08-16T11:55:31.015Z,36.85
2022-08-16T11:57:57.674Z,38.26
2022-08-16T12:00:43.487Z,38.09
2022-08-16T12:03:15.277Z,37.82
2022-08-16T12:05:44.664Z,38.99
2022-08-16T12:08:12.549Z,37.19
2022-08-16T12:10:40.002Z,38.08
2022-08-16T12:13:07.751Z,37.00
2022-08-16T12:15:37.011Z,38.17
2022-08-16T12:18:06.949Z,38.63
2022-08-16T12:20:38.466Z,38.74
2022-08-16T12:23:06.693Z,38.24
2022-08-16T12:25:35.346Z,38.22
2022-08-16T12:28:03.016Z,38.19
2022-08-16T12:30:38.419Z,39.49
2022-08-16T12:33:07.371Z,38.02
2022-08-16T12:35:36.451Z,36.81
2022-08-16T12:38:23.094Z,35.48
2022-08-16T12:40:53.026Z,36.02
2022-08-16T12:43:23.560Z,37.74
2022-08-16T12:45:53.859Z,37.62
2022-08-16T12:48:43.731Z,38.38
2022-08-16T12:51:20.080Z,37.98
2022-08-16T12:53:53.612Z,35.42
2022-08-16T12:56:25.309Z,39.00
2022-08-16T12:58:55.993Z,35.88
2022-08-16T13:01:31.911Z,35.66
2022-08-16T13:04:11.984Z,34.52
2022-08-16T13:06:48.468Z,35.06
2022-08-16T13:09:21.290Z,34.06
2022-08-16T13:12:00.194Z,36.16
2022-08-16T13:14:37.991Z,36.66
2022-08-16T13:17:07.772Z,33.93
2022-08-16T13:20:03.720Z,34.65
2022-08-16T13:22:23.237Z,33.00
2022-08-16T13:24:52.143Z,35.36
2022-08-16T13:27:18.750Z,35.32
2022-08-16T13:29:47.409Z,36.04
2022-08-16T13:32:39.884Z,36.06
2022-08-16T13:35:08.147Z,36.35
2022-08-16T13:37:41.789Z,36.25
2022-08-16T13:40:09.352Z,36.73
2022-08-16T13:42:47.450Z,37.29
2022-08-16T13:45:15.861Z,35.91
2022-08-16T13:47:43.244Z,34.84
2022-08-16T13:50:10.853Z,34.35
2022-08-16T13:52:39.650Z,35.07
2022-08-16T13:55:17.554Z,36.55
2022-08-16T13:57:53.309Z,34.67
2022-08-16T14:00:31.650Z,33.03
2022-08-16T14:02:59.236Z,30.71
2022-08-16T14:05:26.851Z,30.50
2022-08-16T14:07:53.892Z,30.16
2022-08-16T14:10:21.224Z,30.13
2022-08-16T14:12:48.030Z,29.96
2022-08-16T14:15:20.295Z,29.95
2022-08-16T14:18:15.535Z,29.53
2022-08-16T14:20:33.439Z,29.91
2022-08-16T14:23:00.068Z,29.66
2022-08-16T14:25:27.135Z,29.62
2022-08-16T14:27:55.363Z,29.67
2022-08-16T14:30:23.206Z,29.82
2022-08-16T14:32:51.436Z,30.05
2022-08-16T14:35:22.430Z,29.80
2022-08-16T14:38:04.315Z,29.52
2022-08-16T14:40:32.009Z,29.47
2022-08-16T14:42:58.715Z,29.28
2022-08-16T14:45:34.094Z,29.03
2022-08-16T14:48:00.900Z,29.27
2022-08-16T14:50:28.049Z,29.47
2022-08-16T14:53:08.242Z,29.04
2022-08-16T14:55:37.780Z,29.01
2022-08-16T14:58:18.953Z,28.96
2022-08-16T15:00:47.489Z,29.26
2022-08-16T15:03:14.038Z,29.12
2022-08-16T15:05:42.337Z,28.85
2022-08-16T15:08:10.036Z,29.11
2022-08-16T15:10:42.730Z,29.12
2022-08-16T15:13:10.708Z,29.34
2022-08-16T15:15:39.089Z,29.34
2022-08-16T15:18:11.768Z,29.30
2022-08-16T15:20:39.469Z,29.21
2022-08-16T15:23:08.807Z,29.32
2022-08-16T15:25:43.147Z,29.52
2022-08-16T15:28:30.934Z,29.45
2022-08-16T15:31:03.451Z,29.33
2022-08-16T15:33:33.539Z,29.38
2022-08-16T15:36:02.318Z,29.62
2022-08-16T15:38:57.395Z,29.41
2022-08-16T15:41:42.932Z,29.41
2022-08-16T15:44:13.338Z,29.23
2022-08-16T15:46:56.761Z,29.28
2022-08-16T15:49:37.591Z,29.60
2022-08-16T15:52:39.061Z,29.32
2022-08-16T15:55:23.744Z,29.57
2022-08-16T15:57:56.599Z,29.59
2022-08-16T16:00:23.228Z,29.42
2022-08-16T16:03:08.417Z,29.53
2022-08-16T16:05:37.336Z,29.26
2022-08-16T16:08:12.190Z,29.25
2022-08-16T16:10:43.225Z,29.44
2022-08-16T16:13:10.641Z,29.39
2022-08-16T16:15:50.065Z,29.23
2022-08-16T16:18:18.337Z,29.17
2022-08-16T16:20:57.520Z,29.08
2022-08-16T16:23:32.697Z,29.19
2022-08-16T16:26:00.190Z,29.00
2022-08-16T16:29:05.133Z,29.18
2022-08-16T16:31:21.211Z,29.12
2022-08-16T16:33:51.921Z,29.15
2022-08-16T16:36:24.243Z,29.23
2022-08-16T16:38:53.833Z,29.25
2022-08-16T16:41:23.078Z,29.23
2022-08-16T16:43:53.620Z,28.97
2022-08-16T16:46:40.719Z,28.92
2022-08-16T16:49:10.329Z,28.79
2022-08-16T16:51:40.828Z,28.72
2022-08-16T16:54:09.229Z,28.82
2022-08-16T16:56:37.724Z,28.75
2022-08-16T16:59:10.095Z,28.68
2022-08-16T17:01:56.866Z,28.73
2022-08-16T17:04:31.286Z,28.64
2022-08-16T17:07:00.775Z,28.60
2022-08-16T17:09:27.571Z,28.55
2022-08-16T17:11:54.864Z,28.62
2022-08-16T17:14:32.214Z,28.64
2022-08-16T17:17:06.669Z,28.56
2022-08-16T17:19:34.140Z,28.67
2022-08-16T17:22:07.458Z,28.38
2022-08-16T17:24:45.094Z,28.59
2022-08-16T17:27:12.332Z,28.49
2022-08-16T17:29:47.565Z,28.43
2022-08-16T17:32:46.575Z,28.43
2022-08-16T17:35:18.436Z,28.41
2022-08-16T17:37:50.909Z,28.33
2022-08-16T17:40:25.809Z,28.32
2022-08-16T17:43:05.587Z,28.18
2022-08-16T17:45:33.126Z,28.01
2022-08-16T17:48:00.034Z,28.05
2022-08-16T17:50:28.981Z,27.91
2022-08-16T17:52:57.028Z,27.87
2022-08-16T17:55:30.955Z,27.82
2022-08-16T17:57:57.817Z,27.79
2022-08-16T18:00:25.267Z,27.64
2022-08-16T18:02:53.335Z,27.42
2022-08-16T18:05:20.427Z,27.49
2022-08-16T18:07:47.370Z,27.52
2022-08-16T18:10:21.250Z,27.41
2022-08-16T18:12:59.764Z,27.49
2022-08-16T18:15:26.541Z,27.52
2022-08-16T18:17:53.416Z,27.36
2022-08-16T18:20:40.624Z,27.32
2022-08-16T18:23:10.713Z,27.06
2022-08-16T18:25:44.481Z,26.88
2022-08-16T18:28:12.174Z,26.65
2022-08-16T18:30:39.081Z,26.63
2022-08-16T18:33:05.677Z,26.54
2022-08-16T18:35:32.500Z,26.32
2022-08-16T18:37:59.072Z,26.09
2022-08-16T18:40:26.641Z,26.01
2022-08-16T18:43:11.505Z,25.84
2022-08-16T18:45:41.844Z,25.67
2022-08-16T18:48:09.792Z,25.42
2022-08-16T18:50:59.129Z,25.38
2022-08-16T18:53:27.445Z,25.22
2022-08-16T18:55:59.767Z,25.08
2022-08-16T18:58:28.803Z,25.13
2022-08-16T19:00:57.426Z,24.99
2022-08-16T19:03:27.533Z,24.84
2022-08-16T19:06:20.645Z,24.83
2022-08-16T19:08:47.285Z,24.70
2022-08-16T19:11:19.857Z,24.75
2022-08-16T19:13:46.720Z,24.80
2022-08-16T19:16:14.289Z,24.80
2022-08-16T19:18:41.746Z,24.55
2022-08-16T19:21:11.297Z,24.46
2022-08-16T19:23:43.036Z,24.44
2022-08-16T19:26:24.752Z,24.36
2022-08-16T19:28:58.433Z,24.32
2022-08-16T19:31:29.822Z,24.35
2022-08-16T19:33:57.439Z,24.33
2022-08-16T19:36:36.554Z,24.32
2022-08-16T19:39:10.882Z,24.16
2022-08-16T19:41:41.007Z,24.08
2022-08-16T19:44:07.828Z,24.05
2022-08-16T19:46:35.403Z,24.04
2022-08-16T19:49:02.404Z,24.00
2022-08-16T19:51:28.994Z,23.92
2022-08-16T19:53:55.722Z,23.88
2022-08-16T19:56:25.555Z,23.87
2022-08-16T19:59:17.462Z,23.85
2022-08-16T20:01:42.262Z,23.79
2022-08-16T20:04:12.095Z,23.71
2022-08-16T20:06:39.336Z,23.75
2022-08-16T20:09:06.516Z,23.62
2022-08-16T20:11:34.699Z,23.50
2022-08-16T20:14:01.510Z,23.46
2022-08-16T20:16:28.116Z,23.38
2022-08-16T20:18:54.664Z,23.32
2022-08-16T20:21:21.262Z,23.30
2022-08-16T20:23:47.856Z,23.27
2022-08-16T20:26:14.502Z,23.18
2022-08-16T20:28:54.258Z,23.20
2022-08-16T20:31:25.577Z,23.12
2022-08-16T20:33:53.105Z,23.15
2022-08-16T20:36:19.708Z,23.08
2022-08-16T20:38:47.455Z,23.08
2022-08-16T20:41:16.228Z,23.01
2022-08-16T20:43:45.604Z,23.01
2022-08-16T20:46:13.438Z,22.96
2022-08-16T20:48:40.087Z,23.04
2022-08-16T20:51:10.332Z,22.89
2022-08-16T20:53:41.560Z,22.77
2022-08-16T20:56:10.166Z,22.80
2022-08-16T20:58:37.550Z,22.71
2022-08-16T21:01:05.961Z,22.69
2022-08-16T21:03:33.083Z,22.72
2022-08-16T21:06:03.868Z,22.65
2022-08-16T21:08:52.117Z,22.61
2022-08-16T21:11:18.156Z,22.56
2022-08-16T21:13:44.750Z,22.50
2022-08-16T21:16:11.527Z,22.44
2022-08-16T21:18:38.617Z,22.43
2022-08-16T21:21:05.156Z,22.48
2022-08-16T21:23:31.718Z,22.52
2022-08-16T21:25:59.825Z,22.62
2022-08-16T21:28:39.271Z,22.43
2022-08-16T21:31:13.111Z,22.26
2022-08-16T21:33:39.931Z,22.19
2022-08-16T21:36:06.850Z,22.08
2022-08-16T21:38:33.418Z,22.10
2022-08-16T21:41:01.437Z,22.10
2022-08-16T21:43:31.813Z,22.02
2022-08-16T21:46:03.061Z,22.00
2022-08-16T21:48:33.804Z,21.92
2022-08-16T21:51:00.989Z,21.90
2022-08-16T21:53:28.346Z,21.89
2022-08-16T21:55:57.821Z,21.83
2022-08-16T21:58:25.220Z,21.92
2022-08-16T22:00:51.946Z,22.10
2022-08-16T22:03:18.887Z,22.00
2022-08-16T22:06:11.516Z,21.87
2022-08-16T22:08:35.651Z,21.69
2022-08-16T22:11:12.293Z,21.64
2022-08-16T22:13:40.240Z,21.70
2022-08-16T22:16:07.651Z,21.69
2022-08-16T22:18:34.219Z,21.66
2022-08-16T22:21:00.775Z,21.58
2022-08-16T22:23:27.373Z,21.39
2022-08-16T22:25:55.455Z,21.33
2022-08-16T22:28:22.999Z,21.34
2022-08-16T22:30:50.272Z,21.35
2022-08-16T22:33:25.418Z,21.36
2022-08-16T22:35:55.368Z,21.38
2022-08-16T22:38:54.736Z,21.47
2022-08-16T22:41:09.245Z,21.49
2022-08-16T22:43:36.214Z,21.77
2022-08-16T22:46:02.965Z,21.47
2022-08-16T22:48:30.850Z,21.24
2022-08-16T22:51:05.981Z,21.13
2022-08-16T22:53:32.506Z,21.05
2022-08-16T22:55:59.210Z,21.03
2022-08-16T22:58:36.539Z,20.88
2022-08-16T23:01:06.287Z,21.00
2022-08-16T23:03:33.024Z,20.94
2022-08-16T23:06:00.423Z,21.08
2022-08-16T23:08:35.904Z,20.95
2022-08-16T23:11:06.691Z,21.01
2022-08-16T23:13:33.237Z,20.96
2022-08-16T23:16:10.679Z,21.09
2022-08-16T23:18:38.730Z,20.93
2022-08-16T23:21:08.901Z,20.67
2022-08-16T23:23:36.743Z,20.78
2022-08-16T23:26:44.873Z,20.69
2022-08-16T23:28:51.345Z,20.75
2022-08-16T23:31:17.996Z,20.78
2022-08-16T23:33:44.730Z,20.57
2022-08-16T23:36:11.880Z,20.33
2022-08-16T23:38:39.717Z,20.33
2022-08-16T23:41:11.666Z,20.44
2022-08-16T23:43:41.679Z,20.44
2022-08-16T23:46:11.687Z,20.33
2022-08-16T23:49:58.508Z,20.34
2022-08-16T23:51:24.926Z,20.28
2022-08-16T23:53:51.467Z,20.22
2022-08-16T23:56:20.619Z,20.31
2022-08-16T23:58:52.611Z,20.36
